sensor_id;sensor_type;location;lat;lon;timestamp;pressure;altitude;pressure_sealevel;temperature
18161;BMP280;9205;52.032;4.314;2024-03-25T00:02:15;100733.19;;;8.81
18161;BMP280;9205;52.032;4.314;2024-03-25T00:04:43;100733.22;;;8.78
18161;BMP280;9205;52.032;4.314;2024-03-25T00:07:10;100732.41;;;8.77
18161;BMP280;9205;52.032;4.314;2024-03-25T00:09:37;100732.41;;;8.76
18161;BMP280;9205;52.032;4.314;2024-03-25T00:12:03;100734.13;;;8.75
18161;BMP280;9205;52.032;4.314;2024-03-25T00:14:31;100724.81;;;8.76
18161;BMP280;9205;52.032;4.314;2024-03-25T00:16:57;100729.94;;;8.73
18161;BMP280;9205;52.032;4.314;2024-03-25T00:19:25;100733.34;;;8.69
18161;BMP280;9205;52.032;4.314;2024-03-25T00:21:52;100731.75;;;8.65
18161;BMP280;9205;52.032;4.314;2024-03-25T00:24:19;100740.22;;;8.61
18161;BMP280;9205;52.032;4.314;2024-03-25T00:26:46;100743.69;;;8.57
18161;BMP280;9205;52.032;4.314;2024-03-25T00:29:13;100734.41;;;8.56
18161;BMP280;9205;52.032;4.314;2024-03-25T00:31:40;100736.13;;;8.54
18161;BMP280;9205;52.032;4.314;2024-03-25T00:34:07;100735.31;;;8.54
18161;BMP280;9205;52.032;4.314;2024-03-25T00:36:33;100744.56;;;8.53
18161;BMP280;9205;52.032;4.314;2024-03-25T00:39:02;100739.56;;;8.50
18161;BMP280;9205;52.032;4.314;2024-03-25T00:41:28;100736.22;;;8.48
18161;BMP280;9205;52.032;4.314;2024-03-25T00:43:55;100740.47;;;8.46
18161;BMP280;9205;52.032;4.314;2024-03-25T00:46:21;100741.34;;;8.44
18161;BMP280;9205;52.032;4.314;2024-03-25T00:48:49;100743.06;;;8.43
18161;BMP280;9205;52.032;4.314;2024-03-25T00:51:15;100729.59;;;8.40
18161;BMP280;9205;52.032;4.314;2024-03-25T00:53:42;100736.41;;;8.35
18161;BMP280;9205;52.032;4.314;2024-03-25T00:56:10;100740.72;;;8.30
18161;BMP280;9205;52.032;4.314;2024-03-25T00:58:37;100746.59;;;8.30
18161;BMP280;9205;52.032;4.314;2024-03-25T01:01:04;100749.97;;;8.31
18161;BMP280;9205;52.032;4.314;2024-03-25T01:03:31;100749.13;;;8.30
18161;BMP280;9205;52.032;4.314;2024-03-25T01:05:57;100753.41;;;8.28
18161;BMP280;9205;52.032;4.314;2024-03-25T01:08:24;100755.06;;;8.28
18161;BMP280;9205;52.032;4.314;2024-03-25T01:10:51;100761.81;;;8.29
18161;BMP280;9205;52.032;4.314;2024-03-25T01:13:19;100758.44;;;8.30
18161;BMP280;9205;52.032;4.314;2024-03-25T01:15:45;100759.31;;;8.26
18161;BMP280;9205;52.032;4.314;2024-03-25T01:18:13;100758.50;;;8.22
18161;BMP280;9205;52.032;4.314;2024-03-25T01:20:39;100757.75;;;8.17
18161;BMP280;9205;52.032;4.314;2024-03-25T01:23:06;100752.72;;;8.13
18161;BMP280;9205;52.032;4.314;2024-03-25T01:25:32;100744.28;;;8.11
18161;BMP280;9205;52.032;4.314;2024-03-25T01:28:00;100745.16;;;8.08
18161;BMP280;9205;52.032;4.314;2024-03-25T01:30:29;100748.56;;;8.09
18161;BMP280;9205;52.032;4.314;2024-03-25T01:32:56;100751.91;;;8.09
18161;BMP280;9205;52.032;4.314;2024-03-25T01:35:22;100742.63;;;8.11
18161;BMP280;9205;52.032;4.314;2024-03-25T01:37:50;100745.94;;;8.13
18161;BMP280;9205;52.032;4.314;2024-03-25T01:40:16;100737.50;;;8.14
18161;BMP280;9205;52.032;4.314;2024-03-25T01:42:55;100742.59;;;8.16
18161;BMP280;9205;52.032;4.314;2024-03-25T01:45:22;100742.56;;;8.14
18161;BMP280;9205;52.032;4.314;2024-03-25T01:47:51;100740.03;;;8.14
18161;BMP280;9205;52.032;4.314;2024-03-25T01:50:19;100745.06;;;8.19
18161;BMP280;9205;52.032;4.314;2024-03-25T01:52:46;100745.00;;;8.25
18161;BMP280;9205;52.032;4.314;2024-03-25T01:55:17;100740.75;;;8.25
18161;BMP280;9205;52.032;4.314;2024-03-25T01:57:45;100744.91;;;8.29
18161;BMP280;9205;52.032;4.314;2024-03-25T02:00:13;100744.84;;;8.34
18161;BMP280;9205;52.032;4.314;2024-03-25T02:02:51;100741.47;;;8.35
18161;BMP280;9205;52.032;4.314;2024-03-25T02:05:21;100740.59;;;8.39
18161;BMP280;9205;52.032;4.314;2024-03-25T02:07:49;100739.66;;;8.43
18161;BMP280;9205;52.032;4.314;2024-03-25T02:10:16;100742.16;;;8.46
18161;BMP280;9205;52.032;4.314;2024-03-25T02:12:46;100727.81;;;8.48
18161;BMP280;9205;52.032;4.314;2024-03-25T02:15:13;100719.38;;;8.46
18161;BMP280;9205;52.032;4.314;2024-03-25T02:17:42;100723.59;;;8.45
18161;BMP280;9205;52.032;4.314;2024-03-25T02:20:11;100716.84;;;8.44
18161;BMP280;9205;52.032;4.314;2024-03-25T02:22:42;100704.22;;;8.43
18161;BMP280;9205;52.032;4.314;2024-03-25T02:25:10;100705.94;;;8.41
18161;BMP280;9205;52.032;4.314;2024-03-25T02:27:39;100710.22;;;8.37
18161;BMP280;9205;52.032;4.314;2024-03-25T02:30:08;100707.75;;;8.33
18161;BMP280;9205;52.032;4.314;2024-03-25T02:32:36;100707.84;;;8.27
18161;BMP280;9205;52.032;4.314;2024-03-25T02:35:07;100708.78;;;8.20
18161;BMP280;9205;52.032;4.314;2024-03-25T02:37:36;100699.56;;;8.16
18161;BMP280;9205;52.032;4.314;2024-03-25T02:40:07;100692.91;;;8.09
18161;BMP280;9205;52.032;4.314;2024-03-25T02:42:35;100708.97;;;8.05
18161;BMP280;9205;52.032;4.314;2024-03-25T02:45:05;100707.34;;;8.01
18161;BMP280;9205;52.032;4.314;2024-03-25T02:47:32;100703.22;;;7.94
18161;BMP280;9205;52.032;4.314;2024-03-25T02:49:58;100700.78;;;7.86
18161;BMP280;9205;52.032;4.314;2024-03-25T02:52:26;100708.41;;;7.82
18161;BMP280;9205;52.032;4.314;2024-03-25T02:54:52;100703.38;;;7.79
18161;BMP280;9205;52.032;4.314;2024-03-25T02:57:20;100700.91;;;7.76
18161;BMP280;9205;52.032;4.314;2024-03-25T02:59:46;100700.09;;;7.71
18161;BMP280;9205;52.032;4.314;2024-03-25T03:02:14;100690.91;;;7.66
18161;BMP280;9205;52.032;4.314;2024-03-25T03:04:41;100687.63;;;7.59
18161;BMP280;9205;52.032;4.314;2024-03-25T03:07:08;100688.53;;;7.55
18161;BMP280;9205;52.032;4.314;2024-03-25T03:09:34;100684.31;;;7.54
18161;BMP280;9205;52.032;4.314;2024-03-25T03:12:01;100684.34;;;7.51
18161;BMP280;9205;52.032;4.314;2024-03-25T03:14:27;100695.31;;;7.49
18161;BMP280;9205;52.032;4.314;2024-03-25T03:16:54;100697.06;;;7.45
18161;BMP280;9205;52.032;4.314;2024-03-25T03:19:25;100695.44;;;7.38
18161;BMP280;9205;52.032;4.314;2024-03-25T03:21:53;100694.66;;;7.35
18161;BMP280;9205;52.032;4.314;2024-03-25T03:24:20;100688.81;;;7.28
18161;BMP280;9205;52.032;4.314;2024-03-25T03:26:47;100686.31;;;7.27
18161;BMP280;9205;52.032;4.314;2024-03-25T03:29:13;100688.00;;;7.25
18161;BMP280;9205;52.032;4.314;2024-03-25T03:31:40;100684.66;;;7.23
18161;BMP280;9205;52.032;4.314;2024-03-25T03:34:06;100680.50;;;7.17
18161;BMP280;9205;52.032;4.314;2024-03-25T03:36:35;100684.72;;;7.17
18161;BMP280;9205;52.032;4.314;2024-03-25T03:39:01;100684.69;;;7.18
18161;BMP280;9205;52.032;4.314;2024-03-25T03:41:29;100685.53;;;7.17
18161;BMP280;9205;52.032;4.314;2024-03-25T03:43:55;100676.34;;;7.13
18161;BMP280;9205;52.032;4.314;2024-03-25T03:46:23;100682.22;;;7.12
18161;BMP280;9205;52.032;4.314;2024-03-25T03:48:49;100678.06;;;7.10
18161;BMP280;9205;52.032;4.314;2024-03-25T03:51:16;100678.06;;;7.07
18161;BMP280;9205;52.032;4.314;2024-03-25T03:53:44;100678.91;;;7.06
18161;BMP280;9205;52.032;4.314;2024-03-25T03:56:11;100669.69;;;7.03
18161;BMP280;9205;52.032;4.314;2024-03-25T03:58:37;100671.34;;;7.06
18161;BMP280;9205;52.032;4.314;2024-03-25T04:01:14;100669.66;;;7.06
18161;BMP280;9205;52.032;4.314;2024-03-25T04:03:40;100672.19;;;7.06
18161;BMP280;9205;52.032;4.314;2024-03-25T04:06:10;100672.19;;;7.06
18161;BMP280;9205;52.032;4.314;2024-03-25T04:08:36;100672.22;;;7.05
18161;BMP280;9205;52.032;4.314;2024-03-25T04:11:05;100667.22;;;7.00
18161;BMP280;9205;52.032;4.314;2024-03-25T04:13:32;100670.56;;;7.01
18161;BMP280;9205;52.032;4.314;2024-03-25T04:16:05;100669.72;;;7.00
18161;BMP280;9205;52.032;4.314;2024-03-25T04:18:32;100656.31;;;6.97
18161;BMP280;9205;52.032;4.314;2024-03-25T04:21:00;100666.41;;;6.97
18161;BMP280;9205;52.032;4.314;2024-03-25T04:23:27;100662.19;;;6.95
18161;BMP280;9205;52.032;4.314;2024-03-25T04:25:54;100663.06;;;6.92
18161;BMP280;9205;52.032;4.314;2024-03-25T04:28:21;100654.72;;;6.86
18161;BMP280;9205;52.032;4.314;2024-03-25T04:30:53;100657.28;;;6.80
18161;BMP280;9205;52.032;4.314;2024-03-25T04:33:19;100668.22;;;6.79
18161;BMP280;9205;52.032;4.314;2024-03-25T04:35:47;100669.09;;;6.78
18161;BMP280;9205;52.032;4.314;2024-03-25T04:38:16;100669.94;;;6.78
18161;BMP280;9205;52.032;4.314;2024-03-25T04:40:42;100664.06;;;6.76
18161;BMP280;9205;52.032;4.314;2024-03-25T04:43:09;100669.13;;;6.72
18161;BMP280;9205;52.032;4.314;2024-03-25T04:45:37;100665.81;;;6.70
18161;BMP280;9205;52.032;4.314;2024-03-25T04:48:04;100655.72;;;6.67
18161;BMP280;9205;52.032;4.314;2024-03-25T04:50:31;100673.41;;;6.67
18161;BMP280;9205;52.032;4.314;2024-03-25T04:52:57;100675.94;;;6.64
18161;BMP280;9205;52.032;4.314;2024-03-25T04:55:25;100670.88;;;6.64
18161;BMP280;9205;52.032;4.314;2024-03-25T04:57:51;100673.44;;;6.62
18161;BMP280;9205;52.032;4.314;2024-03-25T05:00:18;100662.53;;;6.59
18161;BMP280;9205;52.032;4.314;2024-03-25T05:02:47;100668.41;;;6.59
18161;BMP280;9205;52.032;4.314;2024-03-25T05:05:14;100665.06;;;6.57
18161;BMP280;9205;52.032;4.314;2024-03-25T05:07:40;100665.09;;;6.53
18161;BMP280;9205;52.032;4.314;2024-03-25T05:10:07;100665.94;;;6.52
18161;BMP280;9205;52.032;4.314;2024-03-25T05:12:33;100674.38;;;6.51
18161;BMP280;9205;52.032;4.314;2024-03-25T05:15:00;100674.38;;;6.51
18161;BMP280;9205;52.032;4.314;2024-03-25T05:17:26;100669.28;;;6.52
18161;BMP280;9205;52.032;4.314;2024-03-25T05:19:53;100670.16;;;6.53
18161;BMP280;9205;52.032;4.314;2024-03-25T05:22:20;100665.06;;;6.57
18161;BMP280;9205;52.032;4.314;2024-03-25T05:24:46;100669.28;;;6.58
18161;BMP280;9205;52.032;4.314;2024-03-25T05:27:15;100667.56;;;6.59
18161;BMP280;9205;52.032;4.314;2024-03-25T05:29:41;100660.00;;;6.62
18161;BMP280;9205;52.032;4.314;2024-03-25T05:32:08;100658.16;;;6.77
18161;BMP280;9205;52.032;4.314;2024-03-25T05:34:34;100662.31;;;6.83
18161;BMP280;9205;52.032;4.314;2024-03-25T05:37:02;100660.63;;;6.82
18161;BMP280;9205;52.032;4.314;2024-03-25T05:39:28;100654.72;;;6.84
18161;BMP280;9205;52.032;4.314;2024-03-25T05:41:56;100652.19;;;6.86
18161;BMP280;9205;52.032;4.314;2024-03-25T05:44:22;100647.13;;;6.87
18161;BMP280;9205;52.032;4.314;2024-03-25T05:46:49;100649.63;;;6.89
18161;BMP280;9205;52.032;4.314;2024-03-25T05:49:15;100646.28;;;6.88
18161;BMP280;9205;52.032;4.314;2024-03-25T05:51:41;100643.75;;;6.87
18161;BMP280;9205;52.032;4.314;2024-03-25T05:54:09;100646.28;;;6.88
18161;BMP280;9205;52.032;4.314;2024-03-25T05:56:35;100645.44;;;6.88
18161;BMP280;9205;52.032;4.314;2024-03-25T05:59:02;100650.47;;;6.88
18161;BMP280;9205;52.032;4.314;2024-03-25T06:01:28;100647.16;;;6.86
18161;BMP280;9205;52.032;4.314;2024-03-25T06:03:54;100637.84;;;6.88
18161;BMP280;9205;52.032;4.314;2024-03-25T06:06:21;100639.50;;;6.92
18161;BMP280;9205;52.032;4.314;2024-03-25T06:08:48;100626.84;;;6.95
18161;BMP280;9205;52.032;4.314;2024-03-25T06:11:17;100631.88;;;6.97
18161;BMP280;9205;52.032;4.314;2024-03-25T06:13:45;100635.22;;;6.99
18161;BMP280;9205;52.032;4.314;2024-03-25T06:16:12;100626.00;;;6.97
18161;BMP280;9205;52.032;4.314;2024-03-25T06:18:38;100626.81;;;6.97
18161;BMP280;9205;52.032;4.314;2024-03-25T06:21:05;100628.47;;;7.00
18161;BMP280;9205;52.032;4.314;2024-03-25T06:23:31;100624.22;;;7.03
18161;BMP280;9205;52.032;4.314;2024-03-25T06:25:57;100627.56;;;7.05
18161;BMP280;9205;52.032;4.314;2024-03-25T06:28:25;100625.03;;;7.08
18161;BMP280;9205;52.032;4.314;2024-03-25T06:30:52;100624.16;;;7.11
18161;BMP280;9205;52.032;4.314;2024-03-25T06:33:36;100624.97;;;7.11
18161;BMP280;9205;52.032;4.314;2024-03-25T06:36:22;100626.66;;;7.12
18161;BMP280;9205;52.032;4.314;2024-03-25T06:38:48;100620.75;;;7.13
18161;BMP280;9205;52.032;4.314;2024-03-25T06:41:15;100616.50;;;7.17
18161;BMP280;9205;52.032;4.314;2024-03-25T06:43:43;100624.03;;;7.21
18161;BMP280;9205;52.032;4.314;2024-03-25T06:46:09;100621.50;;;7.24
18161;BMP280;9205;52.032;4.314;2024-03-25T06:48:35;100613.84;;;7.27
18161;BMP280;9205;52.032;4.314;2024-03-25T06:51:04;100618.84;;;7.32
18161;BMP280;9205;52.032;4.314;2024-03-25T06:53:31;100619.66;;;7.35
18161;BMP280;9205;52.032;4.314;2024-03-25T06:55:58;100623.00;;;7.37
18161;BMP280;9205;52.032;4.314;2024-03-25T06:58:26;100612.81;;;7.43
18161;BMP280;9205;52.032;4.314;2024-03-25T07:00:56;100613.59;;;7.50
18161;BMP280;9205;52.032;4.314;2024-03-25T07:03:23;100615.22;;;7.55
18161;BMP280;9205;52.032;4.314;2024-03-25T07:05:51;100601.59;;;7.64
18161;BMP280;9205;52.032;4.314;2024-03-25T07:08:18;100602.31;;;7.75
18161;BMP280;9205;52.032;4.314;2024-03-25T07:10:45;100610.63;;;7.81
18161;BMP280;9205;52.032;4.314;2024-03-25T07:13:12;100607.22;;;7.85
18161;BMP280;9205;52.032;4.314;2024-03-25T07:15:39;100602.97;;;7.85
18161;BMP280;9205;52.032;4.314;2024-03-25T07:18:07;100607.16;;;7.89
18161;BMP280;9205;52.032;4.314;2024-03-25T07:20:33;100609.56;;;7.97
18161;BMP280;9205;52.032;4.314;2024-03-25T07:22:59;100604.41;;;8.03
18161;BMP280;9205;52.032;4.314;2024-03-25T07:25:26;100612.72;;;8.11
18161;BMP280;9205;52.032;4.314;2024-03-25T07:27:52;100620.25;;;8.18
18161;BMP280;9205;52.032;4.314;2024-03-25T07:30:19;100620.94;;;8.28
18161;BMP280;9205;52.032;4.314;2024-03-25T07:32:45;100626.75;;;8.33
18161;BMP280;9205;52.032;4.314;2024-03-25T07:35:13;100621.63;;;8.39
18161;BMP280;9205;52.032;4.314;2024-03-25T07:37:40;100620.69;;;8.43
18161;BMP280;9205;52.032;4.314;2024-03-25T07:40:08;100621.41;;;8.51
18161;BMP280;9205;52.032;4.314;2024-03-25T07:42:35;100626.38;;;8.56
18161;BMP280;9205;52.032;4.314;2024-03-25T07:45:02;100629.63;;;8.63
18161;BMP280;9205;52.032;4.314;2024-03-25T07:47:28;100627.00;;;8.70
18161;BMP280;9205;52.032;4.314;2024-03-25T07:49:55;100625.22;;;8.75
18161;BMP280;9205;52.032;4.314;2024-03-25T07:52:22;100625.94;;;8.82
18161;BMP280;9205;52.032;4.314;2024-03-25T07:54:49;100629.19;;;8.88
18161;BMP280;9205;52.032;4.314;2024-03-25T07:57:15;100633.31;;;8.94
18161;BMP280;9205;52.032;4.314;2024-03-25T07:59:42;100633.19;;;9.00
18161;BMP280;9205;52.032;4.314;2024-03-25T08:02:08;100630.53;;;9.07
18161;BMP280;9205;52.032;4.314;2024-03-25T08:04:35;100623.66;;;9.12
18161;BMP280;9205;52.032;4.314;2024-03-25T08:07:03;100626.97;;;9.17
18161;BMP280;9205;52.032;4.314;2024-03-25T08:09:31;100624.31;;;9.22
18161;BMP280;9205;52.032;4.314;2024-03-25T08:11:57;100619.13;;;9.29
18161;BMP280;9205;52.032;4.314;2024-03-25T08:14:23;100621.66;;;9.29
18161;BMP280;9205;52.032;4.314;2024-03-25T08:16:50;100632.53;;;9.35
18161;BMP280;9205;52.032;4.314;2024-03-25T08:19:17;100626.47;;;9.41
18161;BMP280;9205;52.032;4.314;2024-03-25T08:21:43;100638.19;;;9.48
18161;BMP280;9205;52.032;4.314;2024-03-25T08:24:10;100630.50;;;9.51
18161;BMP280;9205;52.032;4.314;2024-03-25T08:26:37;100631.22;;;9.56
18161;BMP280;9205;52.032;4.314;2024-03-25T08:29:04;100620.91;;;9.65
18161;BMP280;9205;52.032;4.314;2024-03-25T08:31:30;100622.50;;;9.70
18161;BMP280;9205;52.032;4.314;2024-03-25T08:33:56;100621.56;;;9.74
18161;BMP280;9205;52.032;4.314;2024-03-25T08:36:23;100615.59;;;9.75
18161;BMP280;9205;52.032;4.314;2024-03-25T08:38:49;100610.47;;;9.78
18161;BMP280;9205;52.032;4.314;2024-03-25T08:41:16;100612.19;;;9.78
18161;BMP280;9205;52.032;4.314;2024-03-25T08:43:44;100612.06;;;9.84
18161;BMP280;9205;52.032;4.314;2024-03-25T08:46:10;100600.84;;;9.94
18161;BMP280;9205;52.032;4.314;2024-03-25T08:48:36;100606.63;;;10.00
18161;BMP280;9205;52.032;4.314;2024-03-25T08:51:06;100594.75;;;10.02
18161;BMP280;9205;52.032;4.314;2024-03-25T08:53:32;100604.84;;;10.04
18161;BMP280;9205;52.032;4.314;2024-03-25T08:55:59;100606.63;;;10.02
18161;BMP280;9205;52.032;4.314;2024-03-25T08:58:25;100594.69;;;10.04
18161;BMP280;9205;52.032;4.314;2024-03-25T09:00:53;100592.00;;;10.11
18161;BMP280;9205;52.032;4.314;2024-03-25T09:03:19;100592.56;;;10.22
18161;BMP280;9205;52.032;4.314;2024-03-25T09:05:47;100588.16;;;10.30
18161;BMP280;9205;52.032;4.314;2024-03-25T09:08:13;100593.91;;;10.36
18161;BMP280;9205;52.032;4.314;2024-03-25T09:10:43;100588.91;;;10.33
18161;BMP280;9205;52.032;4.314;2024-03-25T09:13:28;100589.81;;;10.31
18161;BMP280;9205;52.032;4.314;2024-03-25T09:15:55;100594.13;;;10.27
18161;BMP280;9205;52.032;4.314;2024-03-25T09:18:22;100597.63;;;10.23
18161;BMP280;9205;52.032;4.314;2024-03-25T09:20:48;100593.31;;;10.27
18161;BMP280;9205;52.032;4.314;2024-03-25T09:23:15;100598.41;;;10.25
18161;BMP280;9205;52.032;4.314;2024-03-25T09:25:51;100597.53;;;10.26
18161;BMP280;9205;52.032;4.314;2024-03-25T09:28:18;100585.59;;;10.30
18161;BMP280;9205;52.032;4.314;2024-03-25T09:30:45;100583.81;;;10.33
18161;BMP280;9205;52.032;4.314;2024-03-25T09:33:13;100588.88;;;10.35
18161;BMP280;9205;52.032;4.314;2024-03-25T09:35:39;100578.84;;;10.30
18161;BMP280;9205;52.032;4.314;2024-03-25T09:38:06;100570.31;;;10.33
18161;BMP280;9205;52.032;4.314;2024-03-25T09:40:35;100575.22;;;10.40
18161;BMP280;9205;52.032;4.314;2024-03-25T09:43:02;100571.66;;;10.47
18161;BMP280;9205;52.032;4.314;2024-03-25T09:45:30;100575.88;;;10.48
18161;BMP280;9205;52.032;4.314;2024-03-25T09:47:58;100561.38;;;10.52
18161;BMP280;9205;52.032;4.314;2024-03-25T09:50:26;100565.56;;;10.53
18161;BMP280;9205;52.032;4.314;2024-03-25T09:52:52;100569.81;;;10.52
18161;BMP280;9205;52.032;4.314;2024-03-25T09:55:19;100563.81;;;10.55
18161;BMP280;9205;52.032;4.314;2024-03-25T09:57:46;100561.16;;;10.59
18161;BMP280;9205;52.032;4.314;2024-03-25T10:00:14;100561.06;;;10.64
18161;BMP280;9205;52.032;4.314;2024-03-25T10:02:42;100562.03;;;10.58
18161;BMP280;9205;52.032;4.314;2024-03-25T10:05:09;100563.81;;;10.55
18161;BMP280;9205;52.032;4.314;2024-03-25T10:07:37;100551.06;;;10.58
18161;BMP280;9205;52.032;4.314;2024-03-25T10:10:05;100550.06;;;10.63
18161;BMP280;9205;52.032;4.314;2024-03-25T10:12:31;100549.78;;;10.74
18161;BMP280;9205;52.032;4.314;2024-03-25T10:14:58;100543.63;;;10.82
18161;BMP280;9205;52.032;4.314;2024-03-25T10:17:24;100541.81;;;10.86
18161;BMP280;9205;52.032;4.314;2024-03-25T10:19:53;100542.56;;;10.89
18161;BMP280;9205;52.032;4.314;2024-03-25T10:22:19;100541.56;;;10.94
18161;BMP280;9205;52.032;4.314;2024-03-25T10:24:47;100530.38;;;11.01
18161;BMP280;9205;52.032;4.314;2024-03-25T10:27:19;100537.00;;;11.07
18161;BMP280;9205;52.032;4.314;2024-03-25T10:29:46;100528.38;;;11.12
18161;BMP280;9205;52.032;4.314;2024-03-25T10:32:13;100523.06;;;11.20
18161;BMP280;9205;52.032;4.314;2024-03-25T10:34:40;100523.66;;;11.28
18161;BMP280;9205;52.032;4.314;2024-03-25T10:37:09;100518.25;;;11.40
18161;BMP280;9205;52.032;4.314;2024-03-25T10:39:45;100524.75;;;11.48
18161;BMP280;9205;52.032;4.314;2024-03-25T10:42:18;100517.06;;;11.50
18161;BMP280;9205;52.032;4.314;2024-03-25T10:44:47;100516.88;;;11.57
18161;BMP280;9205;52.032;4.314;2024-03-25T10:47:19;100512.44;;;11.64
18161;BMP280;9205;52.032;4.314;2024-03-25T10:49:50;100507.19;;;11.68
18161;BMP280;9205;52.032;4.314;2024-03-25T10:52:19;100504.38;;;11.77
18161;BMP280;9205;52.032;4.314;2024-03-25T10:54:47;100504.94;;;11.86
18161;BMP280;9205;52.032;4.314;2024-03-25T10:57:16;100503.88;;;11.92
18161;BMP280;9205;52.032;4.314;2024-03-25T10:59:43;100501.25;;;11.95
18161;BMP280;9205;52.032;4.314;2024-03-25T11:02:10;100493.69;;;11.93
18161;BMP280;9205;52.032;4.314;2024-03-25T11:04:38;100486.72;;;11.98
18161;BMP280;9205;52.032;4.314;2024-03-25T11:07:08;100494.88;;;12.08
18161;BMP280;9205;52.032;4.314;2024-03-25T11:09:34;100478.47;;;12.16
18161;BMP280;9205;52.032;4.314;2024-03-25T11:12:02;100478.22;;;12.24
18161;BMP280;9205;52.032;4.314;2024-03-25T11:14:31;100476.31;;;12.30
18161;BMP280;9205;52.032;4.314;2024-03-25T11:16:59;100457.44;;;12.36
18161;BMP280;9205;52.032;4.314;2024-03-25T11:19:27;100461.59;;;12.38
18161;BMP280;9205;52.032;4.314;2024-03-25T11:21:54;100454.63;;;12.43
18161;BMP280;9205;52.032;4.314;2024-03-25T11:24:27;100447.69;;;12.47
18161;BMP280;9205;52.032;4.314;2024-03-25T11:26:55;100437.31;;;12.52
18161;BMP280;9205;52.032;4.314;2024-03-25T11:29:21;100436.78;;;12.67
18161;BMP280;9205;52.032;4.314;2024-03-25T11:31:51;100438.63;;;12.85
18161;BMP280;9205;52.032;4.314;2024-03-25T11:34:19;100440.25;;;12.88
18161;BMP280;9205;52.032;4.314;2024-03-25T11:36:45;100438.16;;;12.99
18161;BMP280;9205;52.032;4.314;2024-03-25T11:39:12;100428.81;;;13.42
18161;BMP280;9205;52.032;4.314;2024-03-25T11:41:40;100425.81;;;14.15
18161;BMP280;9205;52.032;4.314;2024-03-25T11:44:08;100425.91;;;14.52
18161;BMP280;9205;52.032;4.314;2024-03-25T11:46:37;100415.94;;;14.46
18161;BMP280;9205;52.032;4.314;2024-03-25T11:49:07;100416.72;;;14.48
18161;BMP280;9205;52.032;4.314;2024-03-25T11:51:34;100424.06;;;14.15
18161;BMP280;9205;52.032;4.314;2024-03-25T11:54:04;100423.16;;;14.18
18161;BMP280;9205;52.032;4.314;2024-03-25T11:56:31;100435.06;;;14.17
18161;BMP280;9205;52.032;4.314;2024-03-25T11:58:59;100427.56;;;14.14
18161;BMP280;9205;52.032;4.314;2024-03-25T12:01:25;100421.66;;;14.12
18161;BMP280;9205;52.032;4.314;2024-03-25T12:03:52;100432.44;;;14.19
18161;BMP280;9205;52.032;4.314;2024-03-25T12:06:20;100411.19;;;14.18
18161;BMP280;9205;52.032;4.314;2024-03-25T12:08:46;100419.81;;;14.16
18161;BMP280;9205;52.032;4.314;2024-03-25T12:11:27;100402.91;;;14.13
18161;BMP280;9205;52.032;4.314;2024-03-25T12:13:54;100403.06;;;14.09
18161;BMP280;9205;52.032;4.314;2024-03-25T12:16:21;100399.72;;;14.07
18161;BMP280;9205;52.032;4.314;2024-03-25T12:18:47;100398.06;;;14.06
18161;BMP280;9205;52.032;4.314;2024-03-25T12:21:17;100383.16;;;14.17
18161;BMP280;9205;52.032;4.314;2024-03-25T12:23:47;100374.00;;;14.31
18161;BMP280;9205;52.032;4.314;2024-03-25T12:26:14;100372.63;;;14.43
18161;BMP280;9205;52.032;4.314;2024-03-25T12:28:40;100381.84;;;14.47
18161;BMP280;9205;52.032;4.314;2024-03-25T12:31:09;100369.47;;;14.56
18161;BMP280;9205;52.032;4.314;2024-03-25T12:33:40;100368.56;;;14.57
18161;BMP280;9205;52.032;4.314;2024-03-25T12:36:07;100374.59;;;14.56
18161;BMP280;9205;52.032;4.314;2024-03-25T12:38:34;100372.03;;;14.56
18161;BMP280;9205;52.032;4.314;2024-03-25T12:41:08;100375.06;;;14.46
18161;BMP280;9205;52.032;4.314;2024-03-25T12:43:41;100368.16;;;14.29
18161;BMP280;9205;52.032;4.314;2024-03-25T12:46:08;100365.28;;;14.17
18161;BMP280;9205;52.032;4.314;2024-03-25T12:48:34;100357.09;;;14.09
18161;BMP280;9205;52.032;4.314;2024-03-25T12:51:00;100349.44;;;14.09
18161;BMP280;9205;52.032;4.314;2024-03-25T12:53:30;100352.75;;;14.11
18161;BMP280;9205;52.032;4.314;2024-03-25T12:55:56;100343.56;;;14.07
18161;BMP280;9205;52.032;4.314;2024-03-25T12:58:24;100342.22;;;13.99
18161;BMP280;9205;52.032;4.314;2024-03-25T13:00:50;100338.00;;;13.98
18161;BMP280;9205;52.032;4.314;2024-03-25T13:03:17;100333.44;;;14.04
18161;BMP280;9205;52.032;4.314;2024-03-25T13:05:44;100326.31;;;14.12
18161;BMP280;9205;52.032;4.314;2024-03-25T13:08:10;100322.31;;;14.07
18161;BMP280;9205;52.032;4.314;2024-03-25T13:10:37;100324.09;;;14.05
18161;BMP280;9205;52.032;4.314;2024-03-25T13:13:05;100320.94;;;13.98
18161;BMP280;9205;52.032;4.314;2024-03-25T13:15:32;100315.06;;;13.96
18161;BMP280;9205;52.032;4.314;2024-03-25T13:17:59;100306.25;;;14.03
18161;BMP280;9205;52.032;4.314;2024-03-25T13:20:26;100303.94;;;13.99
18161;BMP280;9205;52.032;4.314;2024-03-25T13:22:54;100297.91;;;14.00
18161;BMP280;9205;52.032;4.314;2024-03-25T13:25:21;100297.97;;;13.98
18161;BMP280;9205;52.032;4.314;2024-03-25T13:27:48;100286.88;;;13.99
18161;BMP280;9205;52.032;4.314;2024-03-25T13:30:14;100284.00;;;14.07
18161;BMP280;9205;52.032;4.314;2024-03-25T13:32:42;100274.91;;;14.19
18161;BMP280;9205;52.032;4.314;2024-03-25T13:35:08;100269.31;;;14.30
18161;BMP280;9205;52.032;4.314;2024-03-25T13:37:35;100271.81;;;14.31
18161;BMP280;9205;52.032;4.314;2024-03-25T13:40:01;100258.69;;;14.39
18161;BMP280;9205;52.032;4.314;2024-03-25T13:42:28;100256.47;;;14.50
18161;BMP280;9205;52.032;4.314;2024-03-25T13:44:54;100233.88;;;14.59
18161;BMP280;9205;52.032;4.314;2024-03-25T13:47:20;100239.03;;;14.58
18161;BMP280;9205;52.032;4.314;2024-03-25T13:49:48;100220.94;;;14.62
18161;BMP280;9205;52.032;4.314;2024-03-25T13:52:14;100240.41;;;14.65
18161;BMP280;9205;52.032;4.314;2024-03-25T13:54:41;100235.56;;;14.77
18161;BMP280;9205;52.032;4.314;2024-03-25T13:57:07;100229.03;;;14.88
18161;BMP280;9205;52.032;4.314;2024-03-25T13:59:33;100230.25;;;14.98
18161;BMP280;9205;52.032;4.314;2024-03-25T14:01:59;100224.59;;;14.92
18161;BMP280;9205;52.032;4.314;2024-03-25T14:04:26;100211.28;;;14.86
18161;BMP280;9205;52.032;4.314;2024-03-25T14:06:54;100213.47;;;14.76
18161;BMP280;9205;52.032;4.314;2024-03-25T14:09:26;100201.69;;;14.55
18161;BMP280;9205;52.032;4.314;2024-03-25T14:11:52;100201.22;;;14.47
18161;BMP280;9205;52.032;4.314;2024-03-25T14:14:19;100192.06;;;14.43
18161;BMP280;9205;52.032;4.314;2024-03-25T14:16:45;100197.50;;;14.36
18161;BMP280;9205;52.032;4.314;2024-03-25T14:19:12;100200.75;;;14.21